sensor_id;sensor_type;location;lat;lon;timestamp;temperature;humidity
38325;DHT22;24126;52.672;13.622;2024-02-14T00:00:06;8.20;74.80
38325;DHT22;24126;52.672;13.622;2024-02-14T00:02:36;8.20;74.90
38325;DHT22;24126;52.672;13.622;2024-02-14T00:05:03;8.10;74.80
38325;DHT22;24126;52.672;13.622;2024-02-14T00:07:31;8.10;74.80
38325;DHT22;24126;52.672;13.622;2024-02-14T00:09:59;8.10;74.90
38325;DHT22;24126;52.672;13.622;2024-02-14T00:12:26;8.00;75.00
38325;DHT22;24126;52.672;13.622;2024-02-14T00:14:54;8.00;75.10
38325;DHT22;24126;52.672;13.622;2024-02-14T00:17:21;8.00;75.20
38325;DHT22;24126;52.672;13.622;2024-02-14T00:19:48;7.90;75.10
38325;DHT22;24126;52.672;13.622;2024-02-14T00:22:15;7.90;75.20
38325;DHT22;24126;52.672;13.622;2024-02-14T00:24:42;7.80;75.10
38325;DHT22;24126;52.672;13.622;2024-02-14T00:27:09;7.80;75.80
38325;DHT22;24126;52.672;13.622;2024-02-14T00:29:37;7.80;75.10
38325;DHT22;24126;52.672;13.622;2024-02-14T00:32:04;7.80;75.00
38325;DHT22;24126;52.672;13.622;2024-02-14T00:34:41;7.80;74.90
38325;DHT22;24126;52.672;13.622;2024-02-14T00:37:09;7.70;74.80
38325;DHT22;24126;52.672;13.622;2024-02-14T00:39:35;7.70;75.00
38325;DHT22;24126;52.672;13.622;2024-02-14T00:42:02;7.70;74.90
38325;DHT22;24126;52.672;13.622;2024-02-14T00:44:29;7.60;74.90
38325;DHT22;24126;52.672;13.622;2024-02-14T00:46:57;7.60;75.10
38325;DHT22;24126;52.672;13.622;2024-02-14T00:49:25;7.50;75.20
38325;DHT22;24126;52.672;13.622;2024-02-14T00:51:52;7.50;75.40
38325;DHT22;24126;52.672;13.622;2024-02-14T00:54:20;7.50;75.50
38325;DHT22;24126;52.672;13.622;2024-02-14T00:56:47;7.50;75.40
38325;DHT22;24126;52.672;13.622;2024-02-14T00:59:14;7.50;75.50
38325;DHT22;24126;52.672;13.622;2024-02-14T01:01:42;7.40;75.50
38325;DHT22;24126;52.672;13.622;2024-02-14T01:04:10;7.40;75.60
38325;DHT22;24126;52.672;13.622;2024-02-14T01:06:38;7.40;75.70
38325;DHT22;24126;52.672;13.622;2024-02-14T01:09:05;7.30;75.70
38325;DHT22;24126;52.672;13.622;2024-02-14T01:11:32;7.40;75.70
38325;DHT22;24126;52.672;13.622;2024-02-14T01:13:59;7.40;75.70
38325;DHT22;24126;52.672;13.622;2024-02-14T01:16:27;7.30;75.70
38325;DHT22;24126;52.672;13.622;2024-02-14T01:18:54;7.30;75.80
38325;DHT22;24126;52.672;13.622;2024-02-14T01:21:22;7.20;75.90
38325;DHT22;24126;52.672;13.622;2024-02-14T01:23:53;7.20;76.00
38325;DHT22;24126;52.672;13.622;2024-02-14T01:26:20;7.10;76.20
38325;DHT22;24126;52.672;13.622;2024-02-14T01:28:47;7.10;76.40
38325;DHT22;24126;52.672;13.622;2024-02-14T01:31:15;7.10;76.50
38325;DHT22;24126;52.672;13.622;2024-02-14T01:33:42;7.10;76.70
38325;DHT22;24126;52.672;13.622;2024-02-14T01:36:09;7.10;76.80
38325;DHT22;24126;52.672;13.622;2024-02-14T01:38:36;7.20;76.90
38325;DHT22;24126;52.672;13.622;2024-02-14T01:41:04;7.20;77.00
38325;DHT22;24126;52.672;13.622;2024-02-14T01:43:31;7.20;76.90
38325;DHT22;24126;52.672;13.622;2024-02-14T01:46:02;7.30;76.90
38325;DHT22;24126;52.672;13.622;2024-02-14T01:48:35;7.30;76.90
38325;DHT22;24126;52.672;13.622;2024-02-14T01:51:03;7.30;76.80
38325;DHT22;24126;52.672;13.622;2024-02-14T01:53:33;7.30;76.80
38325;DHT22;24126;52.672;13.622;2024-02-14T01:56:01;7.30;76.90
38325;DHT22;24126;52.672;13.622;2024-02-14T01:58:30;7.30;76.90
38325;DHT22;24126;52.672;13.622;2024-02-14T02:00:57;7.30;76.90
38325;DHT22;24126;52.672;13.622;2024-02-14T02:03:24;7.30;76.90
38325;DHT22;24126;52.672;13.622;2024-02-14T02:05:52;7.20;76.90
38325;DHT22;24126;52.672;13.622;2024-02-14T02:08:20;7.20;77.10
38325;DHT22;24126;52.672;13.622;2024-02-14T02:10:47;7.30;77.20
38325;DHT22;24126;52.672;13.622;2024-02-14T02:13:34;7.30;77.10
38325;DHT22;24126;52.672;13.622;2024-02-14T02:16:22;7.30;77.10
38325;DHT22;24126;52.672;13.622;2024-02-14T02:19:09;7.30;77.10
38325;DHT22;24126;52.672;13.622;2024-02-14T02:21:56;7.30;77.00
38325;DHT22;24126;52.672;13.622;2024-02-14T02:24:23;7.40;77.00
38325;DHT22;24126;52.672;13.622;2024-02-14T02:26:50;7.40;76.90
38325;DHT22;24126;52.672;13.622;2024-02-14T02:29:37;7.40;77.00
38325;DHT22;24126;52.672;13.622;2024-02-14T02:32:05;7.40;76.90
38325;DHT22;24126;52.672;13.622;2024-02-14T02:34:32;7.40;76.90
38325;DHT22;24126;52.672;13.622;2024-02-14T02:36:59;7.30;76.80
38325;DHT22;24126;52.672;13.622;2024-02-14T02:39:45;7.30;77.00
38325;DHT22;24126;52.672;13.622;2024-02-14T02:42:32;7.30;77.10
38325;DHT22;24126;52.672;13.622;2024-02-14T02:45:20;7.30;77.10
38325;DHT22;24126;52.672;13.622;2024-02-14T02:48:07;7.30;77.20
38325;DHT22;24126;52.672;13.622;2024-02-14T02:50:53;7.30;77.20
38325;DHT22;24126;52.672;13.622;2024-02-14T02:53:39;7.30;77.20
38325;DHT22;24126;52.672;13.622;2024-02-14T02:56:26;7.30;77.20
38325;DHT22;24126;52.672;13.622;2024-02-14T02:58:54;7.20;77.20
38325;DHT22;24126;52.672;13.622;2024-02-14T03:01:23;7.20;77.20
38325;DHT22;24126;52.672;13.622;2024-02-14T03:04:16;7.20;77.20
38325;DHT22;24126;52.672;13.622;2024-02-14T03:07:03;7.20;77.30
38325;DHT22;24126;52.672;13.622;2024-02-14T03:09:49;7.20;77.30
38325;DHT22;24126;52.672;13.622;2024-02-14T03:12:36;7.20;77.20
38325;DHT22;24126;52.672;13.622;2024-02-14T03:15:24;7.20;77.30
38325;DHT22;24126;52.672;13.622;2024-02-14T03:17:51;7.20;77.20
38325;DHT22;24126;52.672;13.622;2024-02-14T03:20:18;7.20;77.20
38325;DHT22;24126;52.672;13.622;2024-02-14T03:22:46;7.20;77.20
38325;DHT22;24126;52.672;13.622;2024-02-14T03:25:16;7.20;77.20
38325;DHT22;24126;52.672;13.622;2024-02-14T03:27:51;7.20;77.20
38325;DHT22;24126;52.672;13.622;2024-02-14T03:30:19;7.20;77.20
38325;DHT22;24126;52.672;13.622;2024-02-14T03:32:48;7.20;77.20
38325;DHT22;24126;52.672;13.622;2024-02-14T03:35:15;7.20;77.20
38325;DHT22;24126;52.672;13.622;2024-02-14T03:37:45;7.20;77.20
38325;DHT22;24126;52.672;13.622;2024-02-14T03:40:13;7.20;77.20
38325;DHT22;24126;52.672;13.622;2024-02-14T03:42:40;7.20;77.30
38325;DHT22;24126;52.672;13.622;2024-02-14T03:45:07;7.20;77.20
38325;DHT22;24126;52.672;13.622;2024-02-14T03:47:35;7.20;77.30
38325;DHT22;24126;52.672;13.622;2024-02-14T03:50:02;7.20;77.20
38325;DHT22;24126;52.672;13.622;2024-02-14T03:52:31;7.20;77.30
38325;DHT22;24126;52.672;13.622;2024-02-14T03:54:59;7.20;77.40
38325;DHT22;24126;52.672;13.622;2024-02-14T03:57:26;7.20;77.40
38325;DHT22;24126;52.672;13.622;2024-02-14T03:59:54;7.20;77.40
38325;DHT22;24126;52.672;13.622;2024-02-14T04:02:22;7.10;77.50
38325;DHT22;24126;52.672;13.622;2024-02-14T04:04:50;7.10;77.50
38325;DHT22;24126;52.672;13.622;2024-02-14T04:07:17;7.10;77.60
38325;DHT22;24126;52.672;13.622;2024-02-14T04:09:44;7.10;77.80
38325;DHT22;24126;52.672;13.622;2024-02-14T04:12:11;7.10;77.80
38325;DHT22;24126;52.672;13.622;2024-02-14T04:14:39;7.10;77.70
38325;DHT22;24126;52.672;13.622;2024-02-14T04:17:06;7.10;77.80
38325;DHT22;24126;52.672;13.622;2024-02-14T04:19:36;7.20;77.80
38325;DHT22;24126;52.672;13.622;2024-02-14T04:22:03;7.20;77.70
38325;DHT22;24126;52.672;13.622;2024-02-14T04:24:30;7.20;77.70
38325;DHT22;24126;52.672;13.622;2024-02-14T04:27:00;7.20;78.40
38325;DHT22;24126;52.672;13.622;2024-02-14T04:29:28;7.20;77.70
38325;DHT22;24126;52.672;13.622;2024-02-14T04:32:02;7.20;77.90
38325;DHT22;24126;52.672;13.622;2024-02-14T04:34:29;7.20;78.00
38325;DHT22;24126;52.672;13.622;2024-02-14T04:36:56;7.10;78.00
38325;DHT22;24126;52.672;13.622;2024-02-14T04:39:23;7.10;78.20
38325;DHT22;24126;52.672;13.622;2024-02-14T04:41:50;7.10;78.10
38325;DHT22;24126;52.672;13.622;2024-02-14T04:44:18;7.20;78.00
38325;DHT22;24126;52.672;13.622;2024-02-14T04:46:46;7.20;78.10
38325;DHT22;24126;52.672;13.622;2024-02-14T04:49:13;7.20;78.20
38325;DHT22;24126;52.672;13.622;2024-02-14T04:51:41;7.20;78.30
38325;DHT22;24126;52.672;13.622;2024-02-14T04:54:08;7.20;78.40
38325;DHT22;24126;52.672;13.622;2024-02-14T04:56:35;7.20;78.40
38325;DHT22;24126;52.672;13.622;2024-02-14T04:59:03;7.20;78.50
38325;DHT22;24126;52.672;13.622;2024-02-14T05:01:31;7.20;78.50
38325;DHT22;24126;52.672;13.622;2024-02-14T05:03:58;7.20;78.70
38325;DHT22;24126;52.672;13.622;2024-02-14T05:06:25;7.20;78.60
38325;DHT22;24126;52.672;13.622;2024-02-14T05:08:52;7.20;78.80
38325;DHT22;24126;52.672;13.622;2024-02-14T05:11:19;7.20;78.70
38325;DHT22;24126;52.672;13.622;2024-02-14T05:13:50;7.20;78.70
38325;DHT22;24126;52.672;13.622;2024-02-14T05:16:18;7.20;78.90
38325;DHT22;24126;52.672;13.622;2024-02-14T05:18:45;7.20;79.00
38325;DHT22;24126;52.672;13.622;2024-02-14T05:21:13;7.20;79.10
38325;DHT22;24126;52.672;13.622;2024-02-14T05:23:41;7.20;79.10
38325;DHT22;24126;52.672;13.622;2024-02-14T05:26:08;7.30;79.10
38325;DHT22;24126;52.672;13.622;2024-02-14T05:28:35;7.30;78.90
38325;DHT22;24126;52.672;13.622;2024-02-14T05:31:02;7.40;79.00
38325;DHT22;24126;52.672;13.622;2024-02-14T05:33:35;7.40;78.90
38325;DHT22;24126;52.672;13.622;2024-02-14T05:36:02;7.40;78.90
38325;DHT22;24126;52.672;13.622;2024-02-14T05:38:31;7.40;78.90
38325;DHT22;24126;52.672;13.622;2024-02-14T05:43:51;7.50;78.90
38325;DHT22;24126;52.672;13.622;2024-02-14T05:46:18;7.50;78.80
38325;DHT22;24126;52.672;13.622;2024-02-14T05:48:46;7.50;78.80
38325;DHT22;24126;52.672;13.622;2024-02-14T05:51:14;7.50;78.70
38325;DHT22;24126;52.672;13.622;2024-02-14T05:53:41;7.50;78.80
38325;DHT22;24126;52.672;13.622;2024-02-14T05:58:39;7.60;79.00
38325;DHT22;24126;52.672;13.622;2024-02-14T06:01:06;7.60;79.00
38325;DHT22;24126;52.672;13.622;2024-02-14T06:03:34;7.60;79.00
38325;DHT22;24126;52.672;13.622;2024-02-14T06:06:01;7.60;79.00
38325;DHT22;24126;52.672;13.622;2024-02-14T06:08:28;7.60;79.00
38325;DHT22;24126;52.672;13.622;2024-02-14T06:10:55;7.70;79.00
38325;DHT22;24126;52.672;13.622;2024-02-14T06:13:22;7.70;78.90
38325;DHT22;24126;52.672;13.622;2024-02-14T06:15:49;7.70;79.00
38325;DHT22;24126;52.672;13.622;2024-02-14T06:18:16;7.70;79.00
38325;DHT22;24126;52.672;13.622;2024-02-14T06:20:44;7.70;79.10
38325;DHT22;24126;52.672;13.622;2024-02-14T06:23:11;7.70;79.00
38325;DHT22;24126;52.672;13.622;2024-02-14T06:25:39;7.70;79.10
38325;DHT22;24126;52.672;13.622;2024-02-14T06:28:08;7.70;79.10
38325;DHT22;24126;52.672;13.622;2024-02-14T06:30:36;7.70;79.10
38325;DHT22;24126;52.672;13.622;2024-02-14T06:33:03;7.70;79.10
38325;DHT22;24126;52.672;13.622;2024-02-14T06:35:30;7.70;79.20
38325;DHT22;24126;52.672;13.622;2024-02-14T06:37:57;7.80;79.20
38325;DHT22;24126;52.672;13.622;2024-02-14T06:40:25;7.80;79.10
38325;DHT22;24126;52.672;13.622;2024-02-14T06:42:53;7.80;79.10
38325;DHT22;24126;52.672;13.622;2024-02-14T06:45:20;7.80;79.20
38325;DHT22;24126;52.672;13.622;2024-02-14T06:47:58;7.80;79.30
38325;DHT22;24126;52.672;13.622;2024-02-14T06:50:26;7.80;79.30
38325;DHT22;24126;52.672;13.622;2024-02-14T06:52:54;7.80;79.40
38325;DHT22;24126;52.672;13.622;2024-02-14T06:55:25;7.80;79.40
38325;DHT22;24126;52.672;13.622;2024-02-14T06:57:53;7.80;79.40
38325;DHT22;24126;52.672;13.622;2024-02-14T07:00:20;7.80;79.30
38325;DHT22;24126;52.672;13.622;2024-02-14T07:02:47;7.80;79.40
38325;DHT22;24126;52.672;13.622;2024-02-14T07:05:14;7.70;79.40
38325;DHT22;24126;52.672;13.622;2024-02-14T07:07:42;7.70;79.60
38325;DHT22;24126;52.672;13.622;2024-02-14T07:10:09;7.70;79.70
38325;DHT22;24126;52.672;13.622;2024-02-14T07:12:36;7.80;79.70
38325;DHT22;24126;52.672;13.622;2024-02-14T07:15:04;7.80;79.70
38325;DHT22;24126;52.672;13.622;2024-02-14T07:17:32;7.80;79.70
38325;DHT22;24126;52.672;13.622;2024-02-14T07:20:00;7.80;79.70
38325;DHT22;24126;52.672;13.622;2024-02-14T07:22:28;7.80;79.70
38325;DHT22;24126;52.672;13.622;2024-02-14T07:24:56;7.80;79.80
38325;DHT22;24126;52.672;13.622;2024-02-14T07:27:23;7.80;80.00
38325;DHT22;24126;52.672;13.622;2024-02-14T07:29:50;7.90;80.00
38325;DHT22;24126;52.672;13.622;2024-02-14T07:32:18;7.90;80.00
38325;DHT22;24126;52.672;13.622;2024-02-14T07:34:45;7.90;80.40
38325;DHT22;24126;52.672;13.622;2024-02-14T07:37:13;8.00;79.70
38325;DHT22;24126;52.672;13.622;2024-02-14T07:39:44;8.00;79.70
38325;DHT22;24126;52.672;13.622;2024-02-14T07:42:12;8.00;79.70
38325;DHT22;24126;52.672;13.622;2024-02-14T07:44:39;8.10;79.60
38325;DHT22;24126;52.672;13.622;2024-02-14T07:47:06;8.10;79.30
38325;DHT22;24126;52.672;13.622;2024-02-14T07:49:34;8.10;79.40
38325;DHT22;24126;52.672;13.622;2024-02-14T07:52:03;8.20;79.60
38325;DHT22;24126;52.672;13.622;2024-02-14T07:54:30;8.20;80.30
38325;DHT22;24126;52.672;13.622;2024-02-14T07:56:57;8.20;79.60
38325;DHT22;24126;52.672;13.622;2024-02-14T07:59:24;8.20;79.60
38325;DHT22;24126;52.672;13.622;2024-02-14T08:01:51;8.30;79.50
38325;DHT22;24126;52.672;13.622;2024-02-14T08:04:18;8.30;79.50
38325;DHT22;24126;52.672;13.622;2024-02-14T08:06:46;8.30;80.20
38325;DHT22;24126;52.672;13.622;2024-02-14T08:09:15;8.40;79.50
38325;DHT22;24126;52.672;13.622;2024-02-14T08:11:42;8.50;79.30
38325;DHT22;24126;52.672;13.622;2024-02-14T08:14:09;8.50;79.30
38325;DHT22;24126;52.672;13.622;2024-02-14T08:16:38;8.60;79.20
38325;DHT22;24126;52.672;13.622;2024-02-14T08:19:05;8.60;79.30
38325;DHT22;24126;52.672;13.622;2024-02-14T08:21:32;8.70;79.10
38325;DHT22;24126;52.672;13.622;2024-02-14T08:23:59;8.70;79.10
38325;DHT22;24126;52.672;13.622;2024-02-14T08:26:27;8.80;79.00
38325;DHT22;24126;52.672;13.622;2024-02-14T08:28:54;8.90;78.90
38325;DHT22;24126;52.672;13.622;2024-02-14T08:31:21;8.90;78.90
38325;DHT22;24126;52.672;13.622;2024-02-14T08:33:48;8.90;78.90
38325;DHT22;24126;52.672;13.622;2024-02-14T08:36:15;9.00;78.90
38325;DHT22;24126;52.672;13.622;2024-02-14T08:38:47;9.00;78.70
38325;DHT22;24126;52.672;13.622;2024-02-14T08:41:14;9.00;78.70
38325;DHT22;24126;52.672;13.622;2024-02-14T08:43:41;9.00;78.70
38325;DHT22;24126;52.672;13.622;2024-02-14T08:46:11;9.10;78.80
38325;DHT22;24126;52.672;13.622;2024-02-14T08:48:38;9.10;78.90
38325;DHT22;24126;52.672;13.622;2024-02-14T08:51:12;9.10;79.00
38325;DHT22;24126;52.672;13.622;2024-02-14T08:53:39;9.10;79.00
38325;DHT22;24126;52.672;13.622;2024-02-14T08:56:08;9.20;79.00
38325;DHT22;24126;52.672;13.622;2024-02-14T08:58:36;9.20;78.90
38325;DHT22;24126;52.672;13.622;2024-02-14T09:01:03;9.30;78.80
38325;DHT22;24126;52.672;13.622;2024-02-14T09:03:31;9.40;78.90
38325;DHT22;24126;52.672;13.622;2024-02-14T09:05:58;9.40;78.90
38325;DHT22;24126;52.672;13.622;2024-02-14T09:08:26;9.50;78.70
38325;DHT22;24126;52.672;13.622;2024-02-14T09:10:55;9.50;78.70
38325;DHT22;24126;52.672;13.622;2024-02-14T09:13:22;9.50;78.80
38325;DHT22;24126;52.672;13.622;2024-02-14T09:15:50;9.50;78.70
38325;DHT22;24126;52.672;13.622;2024-02-14T09:18:18;9.50;78.80
38325;DHT22;24126;52.672;13.622;2024-02-14T09:20:46;9.60;78.90
38325;DHT22;24126;52.672;13.622;2024-02-14T09:23:13;9.60;78.80
38325;DHT22;24126;52.672;13.622;2024-02-14T09:25:45;9.60;78.90
38325;DHT22;24126;52.672;13.622;2024-02-14T09:28:13;9.70;79.00
38325;DHT22;24126;52.672;13.622;2024-02-14T09:30:40;9.70;79.20
38325;DHT22;24126;52.672;13.622;2024-02-14T09:33:07;9.70;79.50
38325;DHT22;24126;52.672;13.622;2024-02-14T09:35:34;9.70;79.50
38325;DHT22;24126;52.672;13.622;2024-02-14T09:38:04;9.70;79.70
38325;DHT22;24126;52.672;13.622;2024-02-14T09:40:31;9.70;79.80
38325;DHT22;24126;52.672;13.622;2024-02-14T09:43:00;9.80;80.00
38325;DHT22;24126;52.672;13.622;2024-02-14T09:45:29;9.80;80.20
38325;DHT22;24126;52.672;13.622;2024-02-14T09:47:59;9.80;80.20
38325;DHT22;24126;52.672;13.622;2024-02-14T09:50:26;9.90;80.40
38325;DHT22;24126;52.672;13.622;2024-02-14T09:52:56;9.90;80.40
38325;DHT22;24126;52.672;13.622;2024-02-14T09:55:24;9.90;80.40
38325;DHT22;24126;52.672;13.622;2024-02-14T09:57:51;10.00;80.40
38325;DHT22;24126;52.672;13.622;2024-02-14T10:00:19;10.00;80.40
38325;DHT22;24126;52.672;13.622;2024-02-14T10:02:47;10.00;80.40
38325;DHT22;24126;52.672;13.622;2024-02-14T10:05:14;10.10;80.40
38325;DHT22;24126;52.672;13.622;2024-02-14T10:07:42;10.10;80.50
38325;DHT22;24126;52.672;13.622;2024-02-14T10:10:10;10.10;80.60
38325;DHT22;24126;52.672;13.622;2024-02-14T10:12:37;10.20;80.70
38325;DHT22;24126;52.672;13.622;2024-02-14T10:15:07;10.20;80.80
38325;DHT22;24126;52.672;13.622;2024-02-14T10:17:38;10.20;80.70
38325;DHT22;24126;52.672;13.622;2024-02-14T10:20:06;10.30;81.00
38325;DHT22;24126;52.672;13.622;2024-02-14T10:22:37;10.30;81.00
38325;DHT22;24126;52.672;13.622;2024-02-14T10:25:05;10.30;81.10
38325;DHT22;24126;52.672;13.622;2024-02-14T10:27:37;10.40;81.20
38325;DHT22;24126;52.672;13.622;2024-02-14T10:30:05;10.40;81.20
38325;DHT22;24126;52.672;13.622;2024-02-14T10:32:35;10.40;81.20
38325;DHT22;24126;52.672;13.622;2024-02-14T10:35:04;10.50;81.40
38325;DHT22;24126;52.672;13.622;2024-02-14T10:37:35;10.50;81.30
38325;DHT22;24126;52.672;13.622;2024-02-14T10:40:02;10.50;81.50
38325;DHT22;24126;52.672;13.622;2024-02-14T10:42:33;10.60;81.60
38325;DHT22;24126;52.672;13.622;2024-02-14T10:45:00;10.60;81.70
38325;DHT22;24126;52.672;13.622;2024-02-14T10:47:32;10.70;81.80
38325;DHT22;24126;52.672;13.622;2024-02-14T10:50:02;10.80;82.00
38325;DHT22;24126;52.672;13.622;2024-02-14T10:52:34;10.80;82.10
38325;DHT22;24126;52.672;13.622;2024-02-14T10:55:03;10.90;82.80
38325;DHT22;24126;52.672;13.622;2024-02-14T10:57:30;11.00;82.10
38325;DHT22;24126;52.672;13.622;2024-02-14T10:59:59;11.10;82.10
38325;DHT22;24126;52.672;13.622;2024-02-14T11:02:28;11.20;82.20
38325;DHT22;24126;52.672;13.622;2024-02-14T11:04:56;11.30;82.30
38325;DHT22;24126;52.672;13.622;2024-02-14T11:07:23;11.30;82.20
38325;DHT22;24126;52.672;13.622;2024-02-14T11:10:28;11.40;82.30
38325;DHT22;24126;52.672;13.622;2024-02-14T11:12:48;11.50;82.30
38325;DHT22;24126;52.672;13.622;2024-02-14T11:15:20;11.70;82.20
38325;DHT22;24126;52.672;13.622;2024-02-14T11:17:48;11.80;82.10
38325;DHT22;24126;52.672;13.622;2024-02-14T11:20:21;11.80;82.10
38325;DHT22;24126;52.672;13.622;2024-02-14T11:23:02;11.90;82.00
38325;DHT22;24126;52.672;13.622;2024-02-14T11:25:31;12.00;81.90
38325;DHT22;24126;52.672;13.622;2024-02-14T11:28:00;12.00;81.80
38325;DHT22;24126;52.672;13.622;2024-02-14T11:30:29;12.00;82.10
38325;DHT22;24126;52.672;13.622;2024-02-14T11:35:53;12.00;82.10
38325;DHT22;24126;52.672;13.622;2024-02-14T11:38:21;12.00;82.20
38325;DHT22;24126;52.672;13.622;2024-02-14T11:40:49;12.00;82.10
38325;DHT22;24126;52.672;13.622;2024-02-14T11:43:18;12.00;82.20
38325;DHT22;24126;52.672;13.622;2024-02-14T11:45:46;12.00;82.20
38325;DHT22;24126;52.672;13.622;2024-02-14T11:48:16;12.00;82.30
38325;DHT22;24126;52.672;13.622;2024-02-14T11:50:44;12.00;82.60
38325;DHT22;24126;52.672;13.622;2024-02-14T11:53:11;12.00;82.70
38325;DHT22;24126;52.672;13.622;2024-02-14T11:55:40;12.00;82.70
38325;DHT22;24126;52.672;13.622;2024-02-14T11:58:10;12.00;82.60
38325;DHT22;24126;52.672;13.622;2024-02-14T12:03:07;12.00;82.70
38325;DHT22;24126;52.672;13.622;2024-02-14T12:05:35;12.10;82.90
38325;DHT22;24126;52.672;13.622;2024-02-14T12:08:06;12.10;82.80
38325;DHT22;24126;52.672;13.622;2024-02-14T12:10:35;12.10;82.70
38325;DHT22;24126;52.672;13.622;2024-02-14T12:15:46;12.10;82.80
38325;DHT22;24126;52.672;13.622;2024-02-14T12:18:13;12.10;83.00
38325;DHT22;24126;52.672;13.622;2024-02-14T12:20:41;12.10;83.00
38325;DHT22;24126;52.672;13.622;2024-02-14T12:23:13;12.00;83.10
38325;DHT22;24126;52.672;13.622;2024-02-14T12:25:40;12.00;83.20
38325;DHT22;24126;52.672;13.622;2024-02-14T12:28:07;12.00;83.20
38325;DHT22;24126;52.672;13.622;2024-02-14T12:33:15;12.00;83.40
38325;DHT22;24126;52.672;13.622;2024-02-14T12:35:44;12.10;83.50
38325;DHT22;24126;52.672;13.622;2024-02-14T12:38:11;12.00;83.50
38325;DHT22;24126;52.672;13.622;2024-02-14T12:40:39;12.10;83.50
38325;DHT22;24126;52.672;13.622;2024-02-14T12:43:08;12.10;83.50
38325;DHT22;24126;52.672;13.622;2024-02-14T12:45:37;12.10;83.60
38325;DHT22;24126;52.672;13.622;2024-02-14T12:48:07;12.10;83.70
38325;DHT22;24126;52.672;13.622;2024-02-14T12:50:35;12.00;83.80
38325;DHT22;24126;52.672;13.622;2024-02-14T12:53:06;12.10;83.90
38325;DHT22;24126;52.672;13.622;2024-02-14T12:55:33;12.10;83.80
38325;DHT22;24126;52.672;13.622;2024-02-14T12:58:01;12.10;84.00
38325;DHT22;24126;52.672;13.622;2024-02-14T13:00:29;12.10;84.00
38325;DHT22;24126;52.672;13.622;2024-02-14T13:02:58;12.20;84.10
38325;DHT22;24126;52.672;13.622;2024-02-14T13:05:26;12.20;84.10
38325;DHT22;24126;52.672;13.622;2024-02-14T13:07:54;12.20;83.90
38325;DHT22;24126;52.672;13.622;2024-02-14T13:10:21;12.20;84.00
38325;DHT22;24126;52.672;13.622;2024-02-14T13:12:48;12.30;84.00
38325;DHT22;24126;52.672;13.622;2024-02-14T13:15:16;12.30;84.00
38325;DHT22;24126;52.672;13.622;2024-02-14T13:17:43;12.30;83.90
38325;DHT22;24126;52.672;13.622;2024-02-14T13:20:11;12.40;84.10
38325;DHT22;24126;52.672;13.622;2024-02-14T13:22:38;12.40;84.00
38325;DHT22;24126;52.672;13.622;2024-02-14T13:25:05;12.40;84.10
38325;DHT22;24126;52.672;13.622;2024-02-14T13:27:33;12.40;84.30
38325;DHT22;24126;52.672;13.622;2024-02-14T13:30:01;12.40;84.40
38325;DHT22;24126;52.672;13.622;2024-02-14T13:32:29;12.40;84.30
38325;DHT22;24126;52.672;13.622;2024-02-14T13:34:57;12.50;84.30
38325;DHT22;24126;52.672;13.622;2024-02-14T13:37:24;12.50;84.20
38325;DHT22;24126;52.672;13.622;2024-02-14T13:39:51;12.50;84.30
38325;DHT22;24126;52.672;13.622;2024-02-14T13:42:18;12.50;84.30
38325;DHT22;24126;52.672;13.622;2024-02-14T13:44:45;12.50;84.30
38325;DHT22;24126;52.672;13.622;2024-02-14T13:47:13;12.60;84.30
38325;DHT22;24126;52.672;13.622;2024-02-14T13:49:40;12.60;84.20
38325;DHT22;24126;52.672;13.622;2024-02-14T13:52:07;12.60;84.20
38325;DHT22;24126;52.672;13.622;2024-02-14T13:54:35;12.60;84.20
38325;DHT22;24126;52.672;13.622;2024-02-14T13:57:02;12.70;84.30
38325;DHT22;24126;52.672;13.622;2024-02-14T13:59:30;12.70;84.40
38325;DHT22;24126;52.672;13.622;2024-02-14T14:01:58;12.70;84.40
38325;DHT22;24126;52.672;13.622;2024-02-14T14:04:25;12.80;84.50
38325;DHT22;24126;52.672;13.622;2024-02-14T14:06:52;12.80;84.50
38325;DHT22;24126;52.672;13.622;2024-02-14T14:09:21;12.80;84.40
38325;DHT22;24126;52.672;13.622;2024-02-14T14:11:48;12.80;84.60
38325;DHT22;24126;52.672;13.622;2024-02-14T14:14:17;12.90;84.60
38325;DHT22;24126;52.672;13.622;2024-02-14T14:16:44;12.90;84.50
38325;DHT22;24126;52.672;13.622;2024-02-14T14:19:11;12.90;84.70
38325;DHT22;24126;52.672;13.622;2024-02-14T14:21:39;12.90;84.70
38325;DHT22;24126;52.672;13.622;2024-02-14T14:24:06;12.90;84.80
38325;DHT22;24126;52.672;13.622;2024-02-14T14:26:33;12.90;84.80
38325;DHT22;24126;52.672;13.622;2024-02-14T14:29:01;12.90;84.80
38325;DHT22;24126;52.672;13.622;2024-02-14T14:31:28;12.90;84.80
38325;DHT22;24126;52.672;13.622;2024-02-14T14:33:56;12.90;84.60
38325;DHT22;24126;52.672;13.622;2024-02-14T14:36:23;12.90;84.70
38325;DHT22;24126;52.672;13.622;2024-02-14T14:38:51;13.00;84.80
38325;DHT22;24126;52.672;13.622;2024-02-14T14:41:20;12.90;84.80
38325;DHT22;24126;52.672;13.622;2024-02-14T14:43:47;13.00;85.00
38325;DHT22;24126;52.672;13.622;2024-02-14T14:46:15;12.90;85.00
38325;DHT22;24126;52.672;13.622;2024-02-14T14:48:43;12.90;85.00
38325;DHT22;24126;52.672;13.622;2024-02-14T14:51:10;12.90;85.00
38325;DHT22;24126;52.672;13.622;2024-02-14T14:53:37;13.00;85.40
38325;DHT22;24126;52.672;13.622;2024-02-14T14:56:05;13.00;85.40
38325;DHT22;24126;52.672;13.622;2024-02-14T14:58:32;12.90;85.30
38325;DHT22;24126;52.672;13.622;2024-02-14T15:01:01;13.00;85.40
38325;DHT22;24126;52.672;13.622;2024-02-14T15:03:30;13.00;85.40
38325;DHT22;24126;52.672;13.622;2024-02-14T15:05:59;13.00;85.40
38325;DHT22;24126;52.672;13.622;2024-02-14T15:08:26;13.00;85.50
38325;DHT22;24126;52.672;13.622;2024-02-14T15:10:57;13.00;85.50
38325;DHT22;24126;52.672;13.622;2024-02-14T15:13:25;13.00;85.60
38325;DHT22;24126;52.672;13.622;2024-02-14T15:15:53;13.10;85.60
38325;DHT22;24126;52.672;13.622;2024-02-14T15:18:21;13.10;85.60
38325;DHT22;24126;52.672;13.622;2024-02-14T15:20:50;13.10;85.50
38325;DHT22;24126;52.672;13.622;2024-02-14T15:23:17;13.10;85.60
38325;DHT22;24126;52.672;13.622;2024-02-14T15:25:44;13.10;85.60
38325;DHT22;24126;52.672;13.622;2024-02-14T15:28:12;13.10;85.70
38325;DHT22;24126;52.672;13.622;2024-02-14T15:30:45;13.10;85.70
38325;DHT22;24126;52.672;13.622;2024-02-14T15:33:30;13.10;85.80
38325;DHT22;24126;52.672;13.622;2024-02-14T15:35:57;13.10;85.80
38325;DHT22;24126;52.672;13.622;2024-02-14T15:38:25;13.10;85.80
38325;DHT22;24126;52.672;13.622;2024-02-14T15:40:53;13.10;85.80
38325;DHT22;24126;52.672;13.622;2024-02-14T15:43:31;13.10;85.80
38325;DHT22;24126;52.672;13.622;2024-02-14T15:46:03;13.20;85.80
38325;DHT22;24126;52.672;13.622;2024-02-14T15:51:03;13.20;85.70
38325;DHT22;24126;52.672;13.622;2024-02-14T15:53:31;13.10;85.80